Big Rapids, MI

9:15 PM EST on November 13, 2019 (GMT -0500)
Roben-Hood

Weather History for KRQB - October, 2019

Change the Weather History Date:

Wednesday, October 23, 2019

  Actual Average Record
Temperature  
Mean Temperature 46 °F -  
Max Temperature 52 °F 57 °F 77 °F (1991)
Min Temperature 39 °F 33 °F 21 °F (1980)
Degree Days  
Heating Degree Days 20    
Moisture  
Dew Point 37 °F    
Average Humidity 73    
Maximum Humidity 91    
Minimum Humidity 44    
Precipitation  
Precipitation 0.01 in - - ()
Sea Level Pressure  
Sea Level Pressure 29.83 in    
Wind  
Wind Speed 10 mph (WSW)    
Max Wind Speed 22 mph    
Max Gust Speed 30 mph    
Visibility 10 miles    
Events Rain    
Averages and records for this station are not official NWS values.
T = Trace of Precipitation, MM = Missing Value Source: NWS Daily Summary

Daily Weather History Graph

Daily Weather History Graph

Search for Another Location

Airport or City:

Astronomy

Oct. 23, 2019 Rise Set
Actual Time 8:06 AM EDT 6:45 PM EDT
Civil Twilight 7:36 AM EDT 7:15 PM EDT
Nautical Twilight 7:03 AM EDT 7:48 PM EDT
Astronomical Twilight 6:29 AM EDT 8:21 PM EDT
Moon 2:09 AM EDT (10/23) 4:48 PM EDT (10/23)
Length of Visible Light 11h 38m
Length of Day
10h 39m
Waning Crescent, 27% of the Moon is Illuminated
Oct 23
Waning Crescent
Oct 27
New
Nov 4
First Quarter
Nov 12
Full
Nov 19
Last Quarter

Hourly Weather History & Observations

Time (EDT) Temp. Windchill Dew Point Humidity Pressure Visibility Wind Dir Wind Speed Gust Speed Precip Events Conditions
12:18 AM 43.2 °F 37.4 °F 40.6 °F 91% 29.64 in 10.0 mi SW 10.4 mph - N/A Rain Rain
12:35 AM 43.2 °F 37.0 °F 40.5 °F 90% 29.64 in 10.0 mi WSW 11.5 mph - N/A   Unknown
12:55 AM 42.8 °F 35.8 °F 40.3 °F 91% 29.64 in 10.0 mi WSW 13.8 mph 19.6 mph N/A   Overcast
1:19 AM 42.8 °F 37.0 °F 40.3 °F 91% 29.64 in 10.0 mi WSW 10.4 mph - N/A   Light Drizzle
1:36 AM 42.8 °F 38.6 °F 40.5 °F 91% 29.65 in 10.0 mi WSW 6.9 mph - N/A   Light Drizzle
1:55 AM 43.2 °F 38.4 °F 40.6 °F 91% 29.65 in 10.0 mi WSW 8.1 mph - N/A   Overcast
1:56 AM 43.2 °F 39.0 °F 40.6 °F 91% 29.65 in 10.0 mi WSW 6.9 mph - N/A   Overcast
2:15 AM 43.3 °F 37.7 °F 40.6 °F 90% 29.65 in 10.0 mi WSW 10.4 mph 18.4 mph N/A   Overcast
2:36 AM 43.3 °F 35.5 °F 39.7 °F 87% 29.66 in 10.0 mi West 17.3 mph 23.0 mph N/A   Overcast
2:55 AM 43.2 °F 37.0 °F 39.2 °F 86% 29.67 in 10.0 mi WSW 11.5 mph 23.0 mph N/A Rain Light Rain
3:15 AM 42.8 °F 37.5 °F 39.2 °F 87% 29.67 in 10.0 mi WSW 9.2 mph - N/A   Overcast
3:16 AM 42.8 °F 37.0 °F 39.2 °F 87% 29.67 in 10.0 mi WSW 10.4 mph - N/A   Overcast
3:38 AM 42.8 °F 38.6 °F 39.2 °F 87% 29.68 in 10.0 mi WSW 6.9 mph - N/A Rain Light Rain
3:55 AM 42.8 °F 37.5 °F 39.2 °F 87% 29.67 in 7.0 mi WSW 9.2 mph - N/A Rain Light Rain
4:15 AM 42.8 °F 38.0 °F 39.2 °F 87% 29.68 in 10.0 mi WSW 8.1 mph - N/A   Overcast
4:39 AM 42.8 °F 38.0 °F 39.2 °F 87% 29.68 in 10.0 mi WSW 8.1 mph - N/A   Overcast
4:56 AM 42.8 °F 40.1 °F 38.8 °F 86% 29.69 in 10.0 mi WSW 4.6 mph - N/A   Overcast
5:15 AM 42.4 °F 39.6 °F 39.2 °F 88% 29.69 in 10.0 mi SW 4.6 mph - N/A Rain Light Rain
5:16 AM 42.3 °F 40.5 °F 39.2 °F 89% 29.68 in 10.0 mi SSW 3.5 mph - N/A Rain Light Rain
5:35 AM 42.8 °F 40.1 °F 39.6 °F 88% 29.69 in 10.0 mi SW 4.6 mph - N/A   Overcast
5:40 AM 42.8 °F 40.1 °F 39.6 °F 88% 29.69 in 10.0 mi SW 4.6 mph - N/A   Overcast
5:57 AM 43.2 °F 39.0 °F 40.1 °F 89% 29.70 in 10.0 mi SW 6.9 mph - N/A   Overcast
6:15 AM 43.5 °F 38.9 °F 39.6 °F 86% 29.71 in 7.0 mi SW 8.1 mph - N/A Rain Light Rain
6:16 AM 43.5 °F 38.3 °F 39.6 °F 86% 29.71 in 7.0 mi WSW 9.2 mph - N/A Rain Light Rain
6:35 AM 42.8 °F 39.3 °F 39.6 °F 88% 29.72 in 7.0 mi SW 5.8 mph - N/A Rain Rain
6:58 AM 42.8 °F 38.6 °F 39.4 °F 88% 29.72 in 10.0 mi SW 6.9 mph - N/A   Overcast
7:16 AM 43.0 °F 38.8 °F 38.8 °F 85% 29.73 in 10.0 mi WSW 6.9 mph - N/A   Overcast
7:35 AM 43.2 °F 38.4 °F 38.3 °F 83% 29.74 in 10.0 mi SW 8.1 mph - N/A   Overcast
7:36 AM 43.2 °F 37.9 °F 38.3 °F 83% 29.74 in 10.0 mi WSW 9.2 mph - N/A   Overcast
7:55 AM 43.3 °F 37.7 °F 37.6 °F 80% 29.74 in 10.0 mi SW 10.4 mph - N/A   Overcast
8:00 AM 43.3 °F 37.7 °F 37.4 °F 80% 29.75 in 10.0 mi SW 10.4 mph - N/A   Overcast
8:17 AM 43.3 °F 38.1 °F 37.4 °F 80% 29.76 in 10.0 mi SW 9.2 mph - N/A   Overcast
8:35 AM 43.5 °F 37.5 °F 37.4 °F 79% 29.76 in 10.0 mi SW 11.5 mph - N/A   Overcast
8:36 AM 43.5 °F 37.9 °F 37.4 °F 79% 29.77 in 10.0 mi WSW 10.4 mph - N/A   Overcast
8:55 AM 43.3 °F 38.1 °F 36.9 °F 78% 29.78 in 10.0 mi WSW 9.2 mph 18.4 mph N/A   Overcast
9:18 AM 43.3 °F 37.2 °F 37.2 °F 79% 29.80 in 10.0 mi SW 11.5 mph - N/A   Mostly Cloudy
9:36 AM 43.7 °F 37.3 °F 37.4 °F 78% 29.80 in 10.0 mi WSW 12.7 mph 17.3 mph N/A   Overcast
9:55 AM 44.6 °F 38.4 °F 37.6 °F 76% 29.80 in 10.0 mi WSW 12.7 mph 17.3 mph N/A   Scattered Clouds
9:56 AM 44.6 °F 38.4 °F 37.8 °F 77% 29.80 in 10.0 mi WSW 12.7 mph 17.3 mph N/A   Scattered Clouds
10:15 AM 45.5 °F 39.2 °F 38.1 °F 75% 29.81 in 10.0 mi WSW 13.8 mph 18.4 mph N/A   Scattered Clouds
10:37 AM 45.9 °F 39.1 °F 37.6 °F 73% 29.82 in 10.0 mi West 16.1 mph 23.0 mph N/A   Overcast
10:55 AM 45.7 °F 38.8 °F 36.9 °F 71% 29.82 in 10.0 mi WSW 16.1 mph 25.3 mph N/A   Overcast
11:20 AM 46.4 °F 39.0 °F 37.0 °F 70% 29.82 in 10.0 mi WSW 19.6 mph 24.2 mph N/A   Overcast
11:38 AM 46.4 °F 39.5 °F 36.5 °F 68% 29.84 in 10.0 mi WSW 17.3 mph 25.3 mph N/A   Overcast
11:56 AM 48.4 °F - 37.6 °F 66% 29.84 in 10.0 mi WSW 10.4 mph 21.9 mph N/A   Mostly Cloudy
12:15 PM 48.7 °F - 37.9 °F 66% 29.85 in 10.0 mi WSW 11.5 mph 17.3 mph N/A   Scattered Clouds
12:16 PM 48.9 °F - 38.1 °F 66% 29.85 in 10.0 mi WSW 16.1 mph 25.3 mph N/A   Mostly Cloudy
12:35 PM 48.0 °F - 37.0 °F 66% 29.86 in 10.0 mi WSW 17.3 mph 24.2 mph N/A   Overcast
12:39 PM 47.8 °F - 36.7 °F 65% 29.86 in 10.0 mi WSW 21.9 mph 29.9 mph N/A   Overcast
12:57 PM 49.8 °F - 37.0 °F 61% 29.86 in 10.0 mi WSW 16.1 mph 26.5 mph N/A   Overcast
1:15 PM 49.5 °F - 36.9 °F 62% 29.86 in 10.0 mi WSW 17.3 mph 25.3 mph N/A   Overcast
1:35 PM 50.9 °F - 37.0 °F 59% 29.86 in 10.0 mi WSW 13.8 mph 19.6 mph N/A   Mostly Cloudy
1:39 PM 50.4 °F - 37.6 °F 62% 29.87 in 10.0 mi WSW 13.8 mph 20.7 mph N/A   Mostly Cloudy
1:58 PM 50.7 °F - 36.3 °F 58% 29.86 in 10.0 mi West 18.4 mph 24.2 mph N/A   Scattered Clouds
2:15 PM 51.3 °F - 36.0 °F 56% 29.87 in 10.0 mi West 15.0 mph 21.9 mph N/A   Scattered Clouds
2:16 PM 51.4 °F - 36.0 °F 56% 29.87 in 10.0 mi West 12.7 mph 21.9 mph N/A   Scattered Clouds
2:35 PM 50.7 °F - 35.4 °F 56% 29.87 in 10.0 mi WSW 17.3 mph 25.3 mph N/A   Scattered Clouds
2:36 PM 50.5 °F - 35.4 °F 56% 29.87 in 10.0 mi WSW 18.4 mph 25.3 mph N/A   Scattered Clouds
2:58 PM 51.6 °F - 36.1 °F 56% 29.87 in 10.0 mi WSW 16.1 mph 21.9 mph N/A   Scattered Clouds
3:16 PM 52.0 °F - 35.1 °F 53% 29.87 in 10.0 mi WSW 15.0 mph 21.9 mph N/A   Scattered Clouds
3:35 PM 52.7 °F - 35.2 °F 52% 29.87 in 10.0 mi West 16.1 mph 21.9 mph N/A   Scattered Clouds
3:36 PM 52.7 °F - 35.2 °F 52% 29.87 in 10.0 mi WSW 17.3 mph 21.9 mph N/A   Scattered Clouds
3:55 PM 52.0 °F - 32.5 °F 48% 29.89 in 10.0 mi WSW 18.4 mph 28.8 mph N/A   Scattered Clouds
4:18 PM 52.2 °F - 32.4 °F 47% 29.89 in 10.0 mi West 16.1 mph 21.9 mph N/A   Scattered Clouds
4:35 PM 52.2 °F - 30.9 °F 44% 29.89 in 10.0 mi West 12.7 mph 26.5 mph N/A   Clear
4:36 PM 52.2 °F - 31.1 °F 45% 29.89 in 10.0 mi West 15.0 mph 26.5 mph N/A   Clear
4:55 PM 52.0 °F - 31.6 °F 46% 29.89 in 10.0 mi WSW 15.0 mph 21.9 mph N/A   Clear
4:56 PM 52.0 °F - 31.3 °F 45% 29.89 in 10.0 mi WSW 15.0 mph 21.9 mph N/A   Clear
5:36 PM 51.3 °F - 30.0 °F 44% 29.89 in 10.0 mi West 5.8 mph 9.2 mph N/A   Clear
5:55 PM 50.7 °F - 30.9 °F 47% 29.91 in 10.0 mi West 5.8 mph - N/A   Clear
5:56 PM 50.7 °F - 30.9 °F 47% 29.91 in 10.0 mi WSW 6.9 mph - N/A   Clear
6:15 PM 49.6 °F - 30.9 °F 49% 29.91 in 10.0 mi WSW 5.8 mph - N/A   Clear
6:19 PM 49.3 °F - 31.1 °F 50% 29.91 in 10.0 mi WSW 5.8 mph - N/A   Clear
6:37 PM 47.3 °F - 31.6 °F 55% 29.92 in 10.0 mi WSW 4.6 mph - N/A   Clear
6:55 PM 45.9 °F - 32.2 °F 59% 29.93 in 10.0 mi Calm Calm - N/A   Scattered Clouds
6:56 PM 45.7 °F - 32.2 °F 59% 29.93 in 10.0 mi Calm Calm - N/A   Scattered Clouds
7:15 PM 43.0 °F 41.3 °F 34.0 °F 71% 29.94 in 10.0 mi SW 3.5 mph - N/A   Clear
7:38 PM 42.8 °F 41.1 °F 33.6 °F 70% 29.94 in 10.0 mi South 3.5 mph - N/A   Clear
7:55 PM 41.4 °F - 33.1 °F 72% 29.95 in 10.0 mi Calm Calm - N/A   Clear
7:56 PM 41.2 °F - 33.3 °F 73% 29.95 in 10.0 mi Calm Calm - N/A   Clear
8:15 PM 41.7 °F - 32.9 °F 71% 29.95 in 10.0 mi Calm Calm - N/A   Clear
8:16 PM 41.5 °F - 32.9 °F 71% 29.95 in 10.0 mi Calm Calm - N/A   Clear
8:38 PM 41.7 °F - 33.6 °F 73% 29.95 in 10.0 mi Calm Calm - N/A   Clear
8:56 PM 39.9 °F - 35.6 °F 85% 29.96 in 10.0 mi Calm Calm - N/A   Scattered Clouds
9:15 PM 41.5 °F - 34.3 °F 76% 29.97 in 10.0 mi Calm Calm - N/A   Mostly Cloudy
9:16 PM 41.5 °F - 34.3 °F 76% 29.97 in 10.0 mi Calm Calm - N/A   Mostly Cloudy
9:35 PM 41.9 °F - 35.4 °F 78% 29.99 in 10.0 mi Calm Calm - N/A   Overcast
9:39 PM 41.7 °F 39.8 °F 36.1 °F 81% 30.00 in 10.0 mi West 3.5 mph - N/A   Overcast
9:57 PM 41.9 °F - 36.1 °F 80% 29.99 in 10.0 mi Calm Calm - N/A   Overcast
10:15 PM 41.2 °F - 37.8 °F 88% 29.98 in 10.0 mi Calm Calm - N/A Rain Light Rain
10:35 PM 46.4 °F 42.9 °F 38.5 °F 74% 29.98 in 7.0 mi West 6.9 mph - N/A   Unknown
10:40 PM 46.6 °F - 38.3 °F 73% 29.99 in 7.0 mi West 5.8 mph - N/A   Overcast
10:57 PM 45.7 °F 43.4 °F 39.0 °F 78% 29.99 in 7.0 mi NW 4.6 mph - N/A Rain Light Rain
11:15 PM 44.2 °F 41.8 °F 39.4 °F 83% 29.99 in 5.0 mi NW 4.6 mph - 0.01 in   Overcast
11:16 PM 44.2 °F 41.8 °F 39.4 °F 83% 29.99 in 7.0 mi WNW 4.6 mph - 0.01 in   Overcast
11:35 PM 43.3 °F - 39.2 °F 85% 29.98 in 10.0 mi Calm Calm - 0.01 in Rain Light Rain
11:36 PM 43.3 °F - 39.2 °F 85% 29.98 in 10.0 mi Calm Calm - 0.01 in Rain Light Rain
11:58 PM 42.8 °F 41.1 °F 39.4 °F 88% 29.97 in 10.0 mi NNW 3.5 mph - 0.01 in Rain Light Rain